WetterOnline ( https://www.wetteronline.at )

Wetter aktuell Rostock

Aktuelles Wetter: Rostock-Warnemünde (10m)

6-stündlich | Neueste Meldungen
Ortszeit Temperatur Wetter
So, 15.12. 13:00 8.8° C leicht bewölkt
So, 15.12. 7:00 2.8° C wolkig
So, 15.12. 1:00 5.5° C bewölkt
Sa, 14.12. 19:00 4.9° C bewölkt
Sa, 14.12. 13:00 4.7° C bedeckt
Sa, 14.12. 7:00 1.4° C Regen
Sa, 14.12. 1:00 1.7° C bedeckt
Fr, 13.12. 19:00 1.7° C bedeckt
Ortszeit Temperatur Wetter
So, 15.12. 13:10 9.0° C leicht bewölkt
So, 15.12. 13:00 8.8° C leicht bewölkt
So, 15.12. 12:50 8.8° C leicht bewölkt
So, 15.12. 12:40 8.6° C fast wolkenlos
So, 15.12. 12:30 8.2° C wolkenlos
So, 15.12. 12:20 8.2° C wolkenlos
So, 15.12. 12:00 7.3° C leicht bewölkt
So, 15.12. 11:30 6.3° C bewölkt
So, 15.12. 11:00 5.3° C leichter Regen
So, 15.12. 10:30 4.7° C bewölkt
So, 15.12. 10:00 4.2° C Sprühregen
Ortszeit Relative Feuchte Sichtweite
So, 15.12. 13:00 66% 55 km
So, 15.12. 7:00 82% 35 km
So, 15.12. 1:00 74% 50 km
Sa, 14.12. 19:00 80% 45 km
Sa, 14.12. 13:00 90% 22 km
Sa, 14.12. 7:00 95% 9 km
Sa, 14.12. 1:00 86% 13 km
Fr, 13.12. 19:00 81% 16 km
Ortszeit Relative Feuchte Sichtweite
So, 15.12. 13:10 56% -
So, 15.12. 13:00 66% 55 km
So, 15.12. 12:50 66% -
So, 15.12. 12:40 70% -
So, 15.12. 12:30 74% 55 km
So, 15.12. 12:20 74% -
So, 15.12. 12:00 81% 50 km
So, 15.12. 11:30 86% 45 km
So, 15.12. 11:00 88% 20 km
So, 15.12. 10:30 87% 30 km
So, 15.12. 10:00 89% 13 km
Ortszeit Niederschlagsmenge Niederschlagsart
So, 15.12. 13:00 2 l/m2 in 6 Std. Regen
So, 15.12. 7:00 0.1 l/m2 in 12 Std. -
So, 15.12. 1:00 0.1 l/m2 in 6 Std. Regen
Sa, 14.12. 19:00 0.3 l/m2 in 12 Std. Regen
Sa, 14.12. 13:00 0.1 l/m2 in 6 Std. Regen
Sa, 14.12. 7:00 2 l/m2 in 12 Std. Schnee, Regen
Sa, 14.12. 1:00 0.0 l/m2 in 6 Std. -
Fr, 13.12. 19:00 0.0 l/m2 in 12 Std. -
Ortszeit Niederschlagsmenge Niederschlagsart
So, 15.12. 13:10 keine Meldung -
So, 15.12. 13:00 0.0 l/m2 in 1 Std. Regen
So, 15.12. 12:50 keine Meldung -
So, 15.12. 12:40 keine Meldung -
So, 15.12. 12:30 0.0 l/m2 in 1 Std. -
So, 15.12. 12:20 keine Meldung -
So, 15.12. 12:00 0.1 l/m2 in 1 Std. Regen
So, 15.12. 11:30 0.1 l/m2 in 1 Std. Schneeregen
So, 15.12. 11:00 0.1 l/m2 in 1 Std. Regen
So, 15.12. 10:30 0.1 l/m2 in 1 Std. Schneeregen
So, 15.12. 10:00 1.5 l/m2 in 1 Std. Regen
Ortszeit Stärke Spitze Richtung
km/h Bft. km/h Grad Sektor
So, 15.12. 13:00 29 5 54 220° SW
So, 15.12. 7:00 13 3 44 170° S
So, 15.12. 1:00 22 4 46 240° SW
Sa, 14.12. 19:00 22 4 40 210° SW
Sa, 14.12. 13:00 20 4 31 200° S
Sa, 14.12. 7:00 11 2 25 170° S
Sa, 14.12. 1:00 7 2 31 160° S
Fr, 13.12. 19:00 18 3 40 160° S
Ortszeit Stärke Spitze Richtung
km/h Bft. km/h Grad Sektor
So, 15.12. 13:10 31 5 - 230° SW
So, 15.12. 13:00 29 5 54 220° SW
So, 15.12. 12:50 29 5 - 220° SW
So, 15.12. 12:40 25 4 - 220° SW
So, 15.12. 12:30 28 4 44 210° SW
So, 15.12. 12:20 28 4 - 210° SW
So, 15.12. 12:00 26 4 48 210° SW
So, 15.12. 11:30 24 4 44 190° S
So, 15.12. 11:00 22 4 47 190° S
So, 15.12. 10:30 22 4 39 190° S
So, 15.12. 10:00 17 3 39 170° S
Ortszeit Untergrenze Bedeckung Gattung
total tief tief mittel hoch
So, 15.12. 13:00 1230 m 3/8 3/8 - - -
So, 15.12. 7:00 2700 m 8/8 1/8 - - -
So, 15.12. 1:00 660 m 7/8 7/8 - - -
Sa, 14.12. 19:00 840 m 7/8 7/8 - - -
Sa, 14.12. 13:00 330 m 8/8 8/8 - - -
Sa, 14.12. 7:00 180 m 8/8 8/8 - - -
Sa, 14.12. 1:00 390 m 8/8 8/8 - - -
Fr, 13.12. 19:00 360 m 8/8 8/8 - - -
Ortszeit Bedeckungsgrad in Achtel und Wolkenuntergrenze
So, 15.12. 13:10 1(1290m) 4(1500m)
So, 15.12. 13:00 2(1230m) 3(1500m)
So, 15.12. 12:50 2(1230m) 3(1500m)
So, 15.12. 12:40 1(1140m)
So, 15.12. 12:30 keine Wolken
So, 15.12. 12:20 keine Wolken
So, 15.12. 12:00 2(510m)
So, 15.12. 11:30 5(450m) 7(1290m) 8(4800m)
So, 15.12. 11:00 6(450m) 7(660m) 8(1350m)
So, 15.12. 10:30 3(360m) 7(510m) 8(720m)
So, 15.12. 10:00 7(510m) 7(690m)
Ortszeit Luftdruck NN (hPa) Tendenz (hPa in 3 Std.)
So, 15.12. 13:00 992 + 0,8
So, 15.12. 7:00 994 - 1,8
So, 15.12. 1:00 994 + 3,8
Sa, 14.12. 19:00 988 + 2,3
Sa, 14.12. 13:00 984 + 0,9
Sa, 14.12. 7:00 982 - 0,7
Sa, 14.12. 1:00 983 - 0,7
Fr, 13.12. 19:00 984 + 0,6
Ortszeit Luftdruck NN (hPa) Tendenz (hPa in 3 Std.)
So, 15.12. 13:10 992 keine Meldung
So, 15.12. 13:00 992 + 0,8
So, 15.12. 12:50 992 keine Meldung
So, 15.12. 12:40 991 keine Meldung
So, 15.12. 12:30 991 - 0,2
So, 15.12. 12:20 991 keine Meldung
So, 15.12. 12:00 991 - 0,2
So, 15.12. 11:30 991 - 1,0
So, 15.12. 11:00 991 - 1,8
So, 15.12. 10:30 991 - 2,1
So, 15.12. 10:00 991 - 2,8
Ortszeit Schneehöhe (cm)
So, 15.12. 13:00 0
So, 15.12. 7:00 0
So, 15.12. 1:00 0
Sa, 14.12. 19:00 0
Sa, 14.12. 13:00 0
Sa, 14.12. 7:00 0
Sa, 14.12. 1:00 0
Fr, 13.12. 19:00 0
Ortszeit Schneehöhe (cm)
So, 15.12. 13:10 0
So, 15.12. 13:00 0
So, 15.12. 12:50 0
So, 15.12. 12:40 0
So, 15.12. 12:30 0
So, 15.12. 12:20 0
So, 15.12. 12:00 0
So, 15.12. 11:30 0
So, 15.12. 11:00 0
So, 15.12. 10:30 0
So, 15.12. 10:00 0
Link zu dieser Seite / Seite empfehlen

Das Wetter in ...